Time;durP1;ratioP1;P1;durP2;ratioP2;P2;SDS_P1;SDS_P2;PMS_P1;PMS_P2;Temp;Humidity;BMP_temperature;BMP_pressure;BME280_temperature;BME280_humidity;BME280_pressure;Samples;Min_cycle;Max_cycle;Signal;HPM_P1;HPM_P2
2021/05/26 00:01:10;;;;;;;2.07;1.40;;;12.50;65.00;;;;;;5029277;28;20930;-76
2021/05/26 00:03:36;;;;;;;2.17;1.10;;;12.50;65.40;;;;;;5030863;28;20191;-75
2021/05/26 00:06:02;;;;;;;2.70;1.43;;;12.50;65.60;;;;;;5045304;28;20204;-75
2021/05/26 00:08:33;;;;;;;2.63;1.40;;;12.50;65.80;;;;;;5049607;28;20450;-76
2021/05/26 00:11:01;;;;;;;2.40;1.27;;;12.50;66.30;;;;;;5033274;28;20922;-75
2021/05/26 00:13:27;;;;;;;4.73;1.30;;;12.50;66.60;;;;;;5038724;28;21017;-76
2021/05/26 00:15:54;;;;;;;2.80;1.30;;;12.50;66.70;;;;;;5034472;28;20497;-75
2021/05/26 00:18:21;;;;;;;1.90;1.30;;;12.50;67.00;;;;;;5029781;28;20466;-77
2021/05/26 00:20:48;;;;;;;3.70;1.50;;;12.50;67.20;;;;;;5032415;28;20461;-74
2021/05/26 00:23:15;;;;;;;3.97;1.23;;;12.50;67.20;;;;;;5050066;28;20427;-74
2021/05/26 00:25:41;;;;;;;1.80;0.97;;;12.50;67.20;;;;;;5049980;28;20451;-74
2021/05/26 00:28:07;;;;;;;2.47;1.40;;;12.50;67.30;;;;;;5048957;28;20430;-77
2021/05/26 00:30:36;;;;;;;3.73;1.47;;;12.50;67.20;;;;;;5047615;28;20442;-75
2021/05/26 00:33:02;;;;;;;3.13;1.70;;;12.60;67.30;;;;;;5031645;28;20467;-76
2021/05/26 00:35:28;;;;;;;1.93;1.40;;;12.60;67.30;;;;;;5031144;28;20454;-76
2021/05/26 00:37:54;;;;;;;2.67;1.10;;;12.60;67.30;;;;;;5032812;28;20424;-77
2021/05/26 00:40:20;;;;;;;2.00;1.30;;;12.60;67.20;;;;;;5039722;28;20235;-76
2021/05/26 00:42:46;;;;;;;6.63;1.37;;;12.60;67.30;;;;;;5049606;28;20659;-75
2021/05/26 00:45:14;;;;;;;7.90;1.20;;;12.60;67.30;;;;;;5059336;28;20419;-75
2021/05/26 00:47:51;;;;;;;6.43;1.50;;;12.60;67.50;;;;;;5048645;28;20477;-75
2021/05/26 00:50:24;;;;;;;4.30;1.70;;;12.60;67.50;;;;;;5040188;28;20431;-75
2021/05/26 00:52:50;;;;;;;3.23;1.30;;;12.60;67.60;;;;;;5034626;28;20526;-76
2021/05/26 00:55:21;;;;;;;2.00;1.20;;;12.60;67.50;;;;;;5030987;28;20451;-75
2021/05/26 00:57:50;;;;;;;2.40;1.40;;;12.60;67.60;;;;;;5033834;28;20426;-76
2021/05/26 01:00:19;;;;;;;1.77;1.23;;;12.60;67.70;;;;;;5034354;28;20453;-77
2021/05/26 01:02:46;;;;;;;2.30;1.40;;;12.60;67.60;;;;;;5033975;28;20423;-76
2021/05/26 01:05:13;;;;;;;3.07;1.30;;;12.60;67.90;;;;;;5033798;28;20424;-75
2021/05/26 01:07:40;;;;;;;3.63;1.47;;;12.60;67.70;;;;;;5034784;28;20801;-76
2021/05/26 01:10:09;;;;;;;1.90;1.20;;;12.60;67.90;;;;;;5041713;28;20947;-76
2021/05/26 01:12:35;;;;;;;2.27;1.33;;;12.60;68.00;;;;;;5032563;28;20538;-76
2021/05/26 01:15:01;;;;;;;3.13;1.20;;;12.60;68.00;;;;;;5033950;28;20443;-75
2021/05/26 01:17:27;;;;;;;3.53;1.40;;;12.60;68.30;;;;;;5035088;28;20471;-75
2021/05/26 01:19:53;;;;;;;3.13;1.20;;;12.60;69.70;;;;;;5044909;28;20451;-75
2021/05/26 01:22:19;;;;;;;3.27;1.40;;;12.50;70.80;;;;;;5035592;28;20424;-76
2021/05/26 01:24:44;;;;;;;1.90;1.13;;;12.40;71.60;;;;;;5044827;28;20193;-75
2021/05/26 01:27:13;;;;;;;2.23;1.30;;;12.30;72.30;;;;;;5035706;28;20295;-74
2021/05/26 01:29:38;;;;;;;2.20;1.23;;;12.30;71.70;;;;;;5042396;28;20199;-76
2021/05/26 01:32:04;;;;;;;3.67;1.10;;;12.20;72.40;;;;;;5033819;28;20479;-76
2021/05/26 01:34:30;;;;;;;2.30;1.40;;;12.20;73.00;;;;;;5034807;28;20918;-77
2021/05/26 01:36:56;;;;;;;2.70;1.60;;;12.00;73.60;;;;;;5040491;28;20197;-75
2021/05/26 01:39:21;;;;;;;2.27;1.30;;;12.00;74.20;;;;;;5052181;28;20651;-74
2021/05/26 01:41:47;;;;;;;5.27;1.60;;;11.80;74.20;;;;;;5063561;28;20204;-75
2021/05/26 01:44:13;;;;;;;1.30;1.07;;;11.80;74.20;;;;;;5061825;28;20215;-75
2021/05/26 01:46:41;;;;;;;5.27;1.27;;;11.80;74.00;;;;;;5052899;28;20296;-75
2021/05/26 01:49:08;;;;;;;4.10;1.80;;;11.80;73.90;;;;;;5036167;28;20424;-76
2021/05/26 01:51:34;;;;;;;2.60;1.40;;;11.80;73.50;;;;;;5032736;28;20467;-76
2021/05/26 01:54:00;;;;;;;2.00;1.10;;;11.80;73.60;;;;;;5034400;28;20849;-75
2021/05/26 01:56:28;;;;;;;2.20;1.20;;;11.80;73.30;;;;;;5035017;28;20435;-75
2021/05/26 01:58:56;;;;;;;1.30;1.10;;;11.80;73.50;;;;;;5044545;28;20507;-76
2021/05/26 02:01:24;;;;;;;1.77;1.20;;;11.80;73.30;;;;;;5054389;28;20780;-74
2021/05/26 02:03:51;;;;;;;2.80;1.33;;;11.70;73.30;;;;;;5051579;28;20443;-75
2021/05/26 02:06:19;;;;;;;3.23;1.03;;;11.70;73.60;;;;;;5052145;28;20860;-75
2021/05/26 02:08:46;;;;;;;2.13;1.30;;;11.70;73.60;;;;;;5051784;28;20427;-77
2021/05/26 02:14:05;;;;;;;5.90;1.47;;;11.60;74.80;;;;;;5032422;28;20422;-77
2021/05/26 02:16:32;;;;;;;3.93;1.60;;;11.50;75.20;;;;;;5032196;28;20443;-76
2021/05/26 02:18:58;;;;;;;4.50;1.47;;;11.50;75.20;;;;;;5045117;28;20434;-74
2021/05/26 02:21:23;;;;;;;1.60;1.10;;;11.50;75.70;;;;;;5051934;28;20423;-76
2021/05/26 02:23:49;;;;;;;3.20;1.27;;;11.50;76.20;;;;;;5052788;28;20470;-76
2021/05/26 02:26:15;;;;;;;2.20;1.30;;;11.50;76.40;;;;;;5051897;28;20611;-77
2021/05/26 02:28:41;;;;;;;4.90;1.57;;;11.50;76.70;;;;;;5051564;28;20434;-75
2021/05/26 02:31:08;;;;;;;5.53;1.33;;;11.40;76.80;;;;;;5051879;28;20192;-75
2021/05/26 02:33:34;;;;;;;1.73;1.20;;;11.40;77.10;;;;;;5050395;28;20431;-75
2021/05/26 02:36:00;;;;;;;6.03;1.40;;;11.40;77.40;;;;;;5031894;28;20443;-75
2021/05/26 02:38:26;;;;;;;2.63;1.07;;;11.40;77.70;;;;;;5031397;28;20424;-75
2021/05/26 02:40:52;;;;;;;2.70;1.10;;;11.40;78.00;;;;;;5031978;28;20422;-76
2021/05/26 02:43:18;;;;;;;2.50;1.00;;;11.30;78.60;;;;;;5032003;28;20949;-77
2021/05/26 02:45:43;;;;;;;4.30;1.30;;;11.30;78.60;;;;;;5040220;28;20208;-76
2021/05/26 02:48:09;;;;;;;1.40;1.10;;;11.30;78.90;;;;;;5037051;28;20185;-76
2021/05/26 02:50:35;;;;;;;3.47;1.37;;;11.30;79.00;;;;;;5031932;28;20710;-76
2021/05/26 02:53:01;;;;;;;8.87;2.00;;;11.20;79.70;;;;;;5032385;28;20463;-76
2021/05/26 02:55:27;;;;;;;3.63;2.60;;;11.20;80.30;;;;;;5030714;28;20316;-76
2021/05/26 02:57:54;;;;;;;2.07;1.17;;;11.10;81.40;;;;;;5031778;28;20416;-75
2021/05/26 03:00:22;;;;;;;2.03;0.97;;;11.10;82.10;;;;;;5038501;28;20427;-76
2021/05/26 03:02:48;;;;;;;2.37;1.33;;;11.10;82.20;;;;;;5034905;28;21021;-75
2021/05/26 03:05:16;;;;;;;3.47;1.30;;;11.00;83.60;;;;;;5032274;28;20451;-76
2021/05/26 03:07:43;;;;;;;2.47;1.13;;;11.00;84.40;;;;;;5031841;28;20450;-76
2021/05/26 03:10:11;;;;;;;3.07;1.57;;;10.90;85.00;;;;;;5041627;28;20427;-76
2021/05/26 03:12:37;;;;;;;1.70;1.30;;;10.90;85.30;;;;;;5051730;28;20780;-75
2021/05/26 03:15:06;;;;;;;3.10;1.50;;;10.90;85.30;;;;;;5051110;28;20826;-76
2021/05/26 03:17:32;;;;;;;3.00;1.40;;;10.80;85.60;;;;;;5050859;28;20441;-76
2021/05/26 03:19:58;;;;;;;2.27;1.50;;;10.80;85.70;;;;;;5049377;28;20956;-75
2021/05/26 03:22:25;;;;;;;5.33;2.43;;;10.80;85.70;;;;;;5050417;28;20567;-75
2021/05/26 03:24:51;;;;;;;7.43;1.77;;;10.90;86.00;;;;;;5040906;28;20514;-76
2021/05/26 03:27:19;;;;;;;2.00;1.40;;;10.90;85.70;;;;;;5031066;28;20573;-75
2021/05/26 03:29:45;;;;;;;2.63;1.30;;;11.00;85.70;;;;;;5031481;28;20460;-76
2021/05/26 03:32:11;;;;;;;1.30;1.20;;;11.00;85.60;;;;;;5031421;28;20543;-75
2021/05/26 03:34:37;;;;;;;4.17;1.47;;;11.00;85.60;;;;;;5032369;28;20188;-75
2021/05/26 03:37:03;;;;;;;3.47;1.40;;;11.00;85.30;;;;;;5030300;28;20444;-75
2021/05/26 03:39:28;;;;;;;4.87;1.47;;;11.00;85.20;;;;;;5040804;28;20694;-75
2021/05/26 03:41:54;;;;;;;7.37;1.33;;;11.00;84.40;;;;;;5034399;28;20192;-75
2021/05/26 03:44:20;;;;;;;7.07;1.80;;;11.00;84.10;;;;;;5030817;28;20185;-76
2021/05/26 03:46:46;;;;;;;4.13;1.53;;;11.10;83.80;;;;;;5030837;28;20779;-76
2021/05/26 03:49:11;;;;;;;1.40;1.40;;;11.10;83.00;;;;;;5030953;28;20181;-76
2021/05/26 03:51:37;;;;;;;2.03;1.40;;;11.10;83.00;;;;;;5054461;28;20216;-76
2021/05/26 03:54:04;;;;;;;3.50;1.43;;;11.10;83.00;;;;;;5051708;28;20662;-75
2021/05/26 03:56:29;;;;;;;3.77;1.57;;;11.10;82.70;;;;;;5051335;28;20207;-75
2021/05/26 03:58:58;;;;;;;2.73;1.50;;;11.10;82.80;;;;;;5051171;28;20497;-76
2021/05/26 04:01:24;;;;;;;2.67;1.37;;;11.20;82.80;;;;;;5052172;28;20425;-75
2021/05/26 04:03:52;;;;;;;2.10;1.27;;;11.20;83.10;;;;;;5049470;28;20463;-76
2021/05/26 04:06:18;;;;;;;2.67;1.50;;;11.20;83.30;;;;;;5049591;28;20443;-76
2021/05/26 04:08:44;;;;;;;7.20;1.60;;;11.20;83.40;;;;;;5048932;28;20431;-76
2021/05/26 04:11:09;;;;;;;2.03;1.30;;;11.20;83.70;;;;;;5032215;28;21060;-76
2021/05/26 04:13:35;;;;;;;2.90;1.40;;;11.20;83.70;;;;;;5042835;28;20264;-76
2021/05/26 04:16:01;;;;;;;3.20;1.30;;;11.20;83.80;;;;;;5049841;28;20592;-76
2021/05/26 04:18:26;;;;;;;4.07;1.40;;;11.20;83.80;;;;;;5050759;28;20211;-78
2021/05/26 04:20:52;;;;;;;4.50;1.80;;;11.20;84.00;;;;;;5051133;28;20184;-76
2021/05/26 04:23:18;;;;;;;7.13;1.50;;;11.20;83.80;;;;;;5041793;28;20186;-77
2021/05/26 04:25:48;;;;;;;3.10;1.40;;;11.20;84.10;;;;;;5040375;28;20204;-75
2021/05/26 04:28:14;;;;;;;5.30;1.80;;;11.10;84.90;;;;;;5050257;28;20185;-75
2021/05/26 04:30:39;;;;;;;3.27;1.80;;;11.10;85.20;;;;;;5041963;28;20455;-76
2021/05/26 04:33:05;;;;;;;5.20;1.53;;;11.10;85.60;;;;;;5041131;28;20587;-77
2021/05/26 04:35:31;;;;;;;4.73;1.27;;;11.00;86.30;;;;;;5052571;28;20219;-76
2021/05/26 04:37:57;;;;;;;2.50;1.40;;;11.00;86.60;;;;;;5056297;28;20271;-77
2021/05/26 04:40:22;;;;;;;3.73;2.03;;;10.90;87.60;;;;;;5051334;28;20774;-75
2021/05/26 04:42:48;;;;;;;2.60;1.50;;;10.90;88.40;;;;;;5030334;28;20347;-76
2021/05/26 04:45:15;;;;;;;5.20;1.87;;;10.80;88.40;;;;;;5031809;28;20272;-76
2021/05/26 04:47:41;;;;;;;3.60;1.60;;;10.80;89.30;;;;;;5041469;28;20215;-76
2021/05/26 04:50:07;;;;;;;1.77;1.03;;;10.70;89.60;;;;;;5048733;28;20953;-75
2021/05/26 04:52:32;;;;;;;5.13;2.43;;;10.70;89.20;;;;;;5049611;28;20236;-77
2021/05/26 04:54:58;;;;;;;5.50;1.43;;;10.70;89.20;;;;;;5049600;28;20447;-76
2021/05/26 04:57:24;;;;;;;3.57;1.57;;;10.70;89.50;;;;;;5049379;28;20683;-76
2021/05/26 04:59:50;;;;;;;5.63;1.70;;;10.70;89.70;;;;;;5032840;28;20192;-77
2021/05/26 05:02:15;;;;;;;5.33;2.00;;;10.70;90.10;;;;;;5030068;28;20311;-76
2021/05/26 05:04:41;;;;;;;5.37;1.50;;;10.80;90.00;;;;;;5028713;28;20215;-78
2021/05/26 05:07:07;;;;;;;11.83;2.57;;;10.70;90.20;;;;;;5030289;28;20197;-76
2021/05/26 05:09:32;;;;;;;8.50;1.97;;;10.60;90.40;;;;;;5040561;28;20624;-76
2021/05/26 05:11:58;;;;;;;2.83;2.07;;;10.70;90.50;;;;;;5040057;28;20212;-76
2021/05/26 05:14:24;;;;;;;2.10;1.60;;;10.70;90.50;;;;;;5047464;28;20172;-78
2021/05/26 05:16:50;;;;;;;6.13;1.93;;;10.60;90.90;;;;;;5029719;28;20573;-75
2021/05/26 05:19:15;;;;;;;2.73;1.37;;;10.60;91.10;;;;;;5028966;28;20220;-76
2021/05/26 05:21:41;;;;;;;2.33;1.50;;;10.70;90.90;;;;;;5038840;28;20180;-75
2021/05/26 05:24:07;;;;;;;6.10;1.80;;;10.70;90.50;;;;;;5033867;28;20204;-76
2021/05/26 05:26:33;;;;;;;6.93;1.90;;;10.60;90.70;;;;;;5028167;28;20262;-76
2021/05/26 05:28:59;;;;;;;2.70;1.73;;;10.40;91.20;;;;;;5044640;28;20952;-74
2021/05/26 05:31:25;;;;;;;7.87;1.67;;;10.40;91.60;;;;;;5038731;28;20462;-76
2021/05/26 05:33:51;;;;;;;6.23;1.80;;;10.40;91.60;;;;;;5030330;28;20667;-74
2021/05/26 05:36:16;;;;;;;3.40;1.40;;;10.40;91.40;;;;;;5027933;28;20275;-77
2021/05/26 05:38:42;;;;;;;4.40;1.70;;;10.50;91.60;;;;;;5029337;28;20191;-75
2021/05/26 05:41:08;;;;;;;3.17;1.53;;;10.50;91.50;;;;;;5051720;28;20195;-74
2021/05/26 05:43:34;;;;;;;3.80;1.63;;;10.50;91.40;;;;;;5046111;28;20235;-75
2021/05/26 05:46:01;;;;;;;3.30;1.33;;;10.60;91.00;;;;;;5040736;28;20216;-75
2021/05/26 05:48:27;;;;;;;3.90;1.50;;;10.60;91.00;;;;;;5035663;28;20326;-76
2021/05/26 05:50:53;;;;;;;3.60;2.20;;;10.60;91.50;;;;;;5038494;28;20465;-75
2021/05/26 05:53:18;;;;;;;9.87;1.57;;;10.60;91.80;;;;;;5042169;28;20477;-76
2021/05/26 05:55:44;;;;;;;2.50;1.37;;;10.70;92.10;;;;;;5054359;28;20211;-74
2021/05/26 05:58:11;;;;;;;3.83;1.73;;;10.60;92.30;;;;;;5051021;28;20185;-77
2021/05/26 06:00:38;;;;;;;2.53;1.40;;;10.50;92.80;;;;;;5035637;28;20181;-76
2021/05/26 06:03:04;;;;;;;5.30;2.17;;;10.50;93.30;;;;;;5049936;28;20431;-76
2021/05/26 06:05:33;;;;;;;4.07;1.93;;;10.50;93.60;;;;;;5054379;28;20447;-76
2021/05/26 06:07:59;;;;;;;3.00;1.70;;;10.50;93.70;;;;;;5052137;28;20439;-76
2021/05/26 06:10:25;;;;;;;5.20;1.80;;;10.40;94.00;;;;;;5045381;28;20517;-77
2021/05/26 06:12:54;;;;;;;8.00;1.83;;;10.50;94.20;;;;;;5037786;28;20268;-76
2021/05/26 06:15:20;;;;;;;4.17;1.40;;;10.50;94.30;;;;;;5041806;28;20319;-76
2021/05/26 06:17:46;;;;;;;5.20;2.37;;;10.50;94.10;;;;;;5051220;28;20997;-76
2021/05/26 06:20:12;;;;;;;5.00;2.20;;;10.50;94.20;;;;;;5042161;28;20208;-78
2021/05/26 06:22:38;;;;;;;4.63;2.07;;;10.60;94.40;;;;;;5033581;28;20192;-77
2021/05/26 06:25:04;;;;;;;5.10;2.73;;;10.70;94.70;;;;;;5043095;28;20956;-76
2021/05/26 06:27:30;;;;;;;2.90;1.90;;;10.80;93.90;;;;;;5035742;28;20827;-76
2021/05/26 06:29:55;;;;;;;6.27;1.77;;;10.70;93.80;;;;;;5031469;28;20459;-77
2021/05/26 06:32:21;;;;;;;5.33;1.70;;;10.80;93.90;;;;;;5031240;28;20217;-77
2021/05/26 06:34:50;;;;;;;5.13;1.77;;;10.70;93.80;;;;;;5033167;28;20209;-78
2021/05/26 06:37:16;;;;;;;2.93;1.77;;;10.80;94.20;;;;;;5036294;28;20462;-76
2021/05/26 06:39:42;;;;;;;3.90;1.90;;;10.80;94.30;;;;;;5052370;28;20960;-77
2021/05/26 06:42:08;;;;;;;4.23;2.10;;;10.80;94.40;;;;;;5052670;28;20577;-78
2021/05/26 06:44:33;;;;;;;3.13;1.90;;;10.90;94.50;;;;;;5051506;28;20283;-77
2021/05/26 06:46:59;;;;;;;4.93;1.70;;;11.10;94.50;;;;;;5051726;28;20529;-78
2021/05/26 06:49:25;;;;;;;6.27;1.80;;;11.10;93.30;;;;;;5052163;28;20682;-76
2021/05/26 06:51:54;;;;;;;5.60;1.90;;;11.10;93.60;;;;;;5032978;28;20263;-77
2021/05/26 06:54:20;;;;;;;3.33;1.60;;;11.10;93.60;;;;;;5045273;28;20199;-77
2021/05/26 06:56:45;;;;;;;3.20;1.70;;;11.10;94.10;;;;;;5050636;28;20459;-78
2021/05/26 06:59:11;;;;;;;3.97;1.90;;;11.10;93.40;;;;;;5051495;28;20457;-76
2021/05/26 07:01:37;;;;;;;5.20;1.70;;;11.00;93.30;;;;;;5052162;28;20192;-77
2021/05/26 07:04:03;;;;;;;8.83;1.97;;;10.90;93.40;;;;;;5038213;28;20196;-76
2021/05/26 07:06:29;;;;;;;5.40;2.10;;;10.80;93.80;;;;;;5033653;28;20880;-77
2021/05/26 07:08:54;;;;;;;5.00;1.90;;;10.80;94.20;;;;;;5032443;28;20427;-76
2021/05/26 07:11:20;;;;;;;5.57;1.67;;;10.90;94.10;;;;;;5034194;28;20197;-76
2021/05/26 07:13:46;;;;;;;6.57;1.97;;;10.90;93.90;;;;;;5045365;28;20191;-76
2021/05/26 07:16:12;;;;;;;5.63;1.90;;;11.00;93.80;;;;;;5052651;28;20442;-76
2021/05/26 07:18:38;;;;;;;3.80;1.73;;;11.00;94.20;;;;;;5038992;28;20182;-75
2021/05/26 07:21:04;;;;;;;9.00;2.03;;;11.10;94.00;;;;;;5031085;28;20659;-73
2021/05/26 07:23:31;;;;;;;3.83;2.00;;;11.20;94.10;;;;;;5029217;28;20702;-75
2021/05/26 07:25:57;;;;;;;5.90;2.20;;;11.30;93.50;;;;;;5030676;28;20444;-74
2021/05/26 07:28:23;;;;;;;6.17;2.00;;;11.30;93.50;;;;;;5030300;28;20423;-75
2021/05/26 07:30:48;;;;;;;8.70;2.43;;;11.40;92.50;;;;;;5043924;28;20734;-75
2021/05/26 07:33:14;;;;;;;5.30;2.20;;;11.30;92.50;;;;;;5043032;28;20709;-74
2021/05/26 07:35:40;;;;;;;8.60;2.83;;;11.30;92.50;;;;;;5044916;28;20698;-74
2021/05/26 07:38:06;;;;;;;11.50;2.30;;;11.30;92.60;;;;;;5023954;28;20575;-73
2021/05/26 07:40:31;;;;;;;3.90;1.97;;;11.30;92.10;;;;;;5027541;28;20786;-74
2021/05/26 07:42:57;;;;;;;6.30;2.53;;;11.40;91.60;;;;;;5038816;28;20197;-72
2021/05/26 07:45:23;;;;;;;8.20;2.17;;;11.30;90.50;;;;;;5028720;28;20197;-74
2021/05/26 07:47:49;;;;;;;8.33;2.80;;;11.40;91.20;;;;;;5033517;28;20193;-73
2021/05/26 07:50:15;;;;;;;5.47;2.13;;;11.40;91.00;;;;;;5032231;28;20222;-73
2021/05/26 07:52:40;;;;;;;4.80;2.00;;;11.40;89.60;;;;;;5030987;28;20328;-73
2021/05/26 07:55:06;;;;;;;6.00;2.43;;;11.50;88.90;;;;;;5030426;28;20488;-74
2021/05/26 07:57:32;;;;;;;3.33;1.47;;;11.40;88.90;;;;;;5048911;28;20259;-75
2021/05/26 07:59:58;;;;;;;6.77;2.23;;;11.40;88.10;;;;;;5036016;28;20581;-77
2021/05/26 08:02:23;;;;;;;8.20;2.10;;;11.40;88.00;;;;;;5040810;28;20666;-75
2021/05/26 08:04:49;;;;;;;5.53;2.13;;;11.40;87.80;;;;;;5036357;28;20628;-75
2021/05/26 08:07:15;;;;;;;7.43;2.23;;;11.50;87.40;;;;;;5035412;28;20216;-74
2021/05/26 08:09:41;;;;;;;3.53;1.90;;;11.40;87.60;;;;;;5033444;28;20430;-74
2021/05/26 08:12:10;;;;;;;4.60;2.27;;;11.50;88.10;;;;;;5042030;28;20247;-71
2021/05/26 08:14:37;;;;;;;4.90;1.87;;;11.50;88.10;;;;;;5048418;28;20674;-75
2021/05/26 08:17:03;;;;;;;11.40;2.70;;;11.60;87.40;;;;;;5039581;28;20476;-76
2021/05/26 08:19:29;;;;;;;5.47;1.80;;;11.60;86.90;;;;;;5036951;28;20522;-73
2021/05/26 08:21:55;;;;;;;4.73;2.20;;;11.60;86.30;;;;;;5030117;28;20518;-76
2021/05/26 08:24:21;;;;;;;5.33;2.10;;;11.60;86.50;;;;;;5037434;28;20674;-76
2021/05/26 08:26:51;;;;;;;6.23;1.60;;;11.60;86.00;;;;;;5054820;28;20446;-76
2021/05/26 08:29:18;;;;;;;4.03;2.30;;;11.50;86.00;;;;;;5033830;28;20275;-77
2021/05/26 08:31:44;;;;;;;8.10;3.00;;;11.50;87.10;;;;;;5041830;28;20875;-76
2021/05/26 08:34:10;;;;;;;6.53;2.23;;;11.50;87.80;;;;;;5027653;28;20436;-76
2021/05/26 08:36:36;;;;;;;8.03;2.00;;;11.50;86.80;;;;;;5029923;28;20810;-76
2021/05/26 08:39:04;;;;;;;5.20;1.93;;;11.60;87.00;;;;;;5041890;28;20428;-75
2021/05/26 08:41:30;;;;;;;6.53;2.30;;;11.60;86.20;;;;;;5028524;28;20682;-76
2021/05/26 08:43:56;;;;;;;5.27;2.37;;;11.70;86.30;;;;;;5036278;28;20423;-79
2021/05/26 08:46:22;;;;;;;4.30;2.03;;;11.70;85.20;;;;;;5039583;28;20300;-77
2021/05/26 08:48:52;;;;;;;5.33;2.17;;;11.70;85.90;;;;;;5023654;28;20180;-76
2021/05/26 08:51:20;;;;;;;6.13;2.30;;;11.70;86.30;;;;;;5035198;28;20428;-77
2021/05/26 08:53:47;;;;;;;3.40;1.90;;;11.50;85.60;;;;;;5049100;28;20418;-76
2021/05/26 08:56:12;;;;;;;4.73;2.00;;;11.60;87.40;;;;;;5036408;28;20444;-75
2021/05/26 08:58:42;;;;;;;3.73;1.90;;;11.50;86.30;;;;;;5041229;28;20453;-75
2021/05/26 09:01:09;;;;;;;7.93;2.73;;;11.40;85.60;;;;;;5028935;28;20243;-76
2021/05/26 09:03:35;;;;;;;5.63;2.40;;;11.40;86.50;;;;;;5038952;28;20796;-75
2021/05/26 09:06:05;;;;;;;3.13;1.87;;;11.40;86.20;;;;;;5037104;28;20448;-76
2021/05/26 09:08:30;;;;;;;9.90;2.17;;;11.40;86.60;;;;;;5034810;28;20423;-76
2021/05/26 09:11:01;;;;;;;4.13;2.10;;;11.40;86.90;;;;;;5022625;28;20438;-76
2021/05/26 09:13:41;;;;;;;5.37;1.77;;;11.50;87.10;;;;;;5034337;28;20266;-75
2021/05/26 09:16:09;;;;;;;7.87;2.30;;;11.50;86.60;;;;;;5049808;28;20439;-75
2021/05/26 09:19:04;;;;;;;6.60;2.47;;;11.60;86.90;;;;;;5020307;28;20415;-76
2021/05/26 09:21:54;;;;;;;5.70;2.33;;;11.60;86.50;;;;;;5046185;28;20424;-75
2021/05/26 09:24:20;;;;;;;7.37;1.80;;;11.70;85.60;;;;;;5034125;28;20952;-76
2021/05/26 09:27:04;;;;;;;9.60;2.20;;;11.50;85.20;;;;;;5040980;28;20522;-75
2021/05/26 09:29:33;;;;;;;5.70;1.73;;;11.50;85.50;;;;;;5040296;28;20824;-76
2021/05/26 09:32:12;;;;;;;4.43;2.13;;;11.50;85.30;;;;;;5037648;28;20501;-77
2021/05/26 09:34:43;;;;;;;6.00;2.03;;;11.50;85.50;;;;;;5047964;28;20921;-76
2021/05/26 09:37:16;;;;;;;3.80;2.13;;;11.60;86.30;;;;;;5046521;28;20519;-76
2021/05/26 09:39:49;;;;;;;8.40;2.33;;;11.70;86.20;;;;;;5053279;28;20449;-76
2021/05/26 09:42:42;;;;;;;11.13;1.90;;;11.80;85.50;;;;;;5027605;28;20893;-75
2021/05/26 09:45:10;;;;;;;5.57;2.80;;;11.70;84.70;;;;;;5049347;28;20923;-76
2021/05/26 09:47:49;;;;;;;3.87;2.17;;;11.50;86.00;;;;;;5039250;28;20430;-76
2021/05/26 09:50:23;;;;;;;3.03;1.70;;;11.60;86.00;;;;;;5053316;28;20446;-77
2021/05/26 09:53:01;;;;;;;3.53;1.60;;;11.60;84.70;;;;;;5044813;28;20569;-76
2021/05/26 09:55:49;;;;;;;2.93;1.50;;;11.50;84.90;;;;;;5052841;28;20443;-78
2021/05/26 09:58:17;;;;;;;4.50;1.40;;;11.50;83.80;;;;;;5048809;28;20416;-77
2021/05/26 10:00:47;;;;;;;2.90;1.40;;;11.60;83.80;;;;;;5049599;28;20427;-76
2021/05/26 10:03:13;;;;;;;2.43;1.60;;;11.70;82.40;;;;;;5048823;28;20423;-76
2021/05/26 10:05:39;;;;;;;1.90;1.60;;;11.80;82.80;;;;;;5036100;28;20539;-75
2021/05/26 10:08:12;;;;;;;3.07;1.10;;;11.80;82.20;;;;;;5021720;28;20500;-79
2021/05/26 10:10:40;;;;;;;1.10;0.87;;;11.90;83.00;;;;;;5028435;28;20455;-77
2021/05/26 10:13:10;;;;;;;3.97;1.70;;;11.80;81.70;;;;;;5052086;28;20527;-76
2021/05/26 10:15:36;;;;;;;3.43;1.47;;;11.90;82.20;;;;;;5038898;28;20489;-77
2021/05/26 10:18:02;;;;;;;2.37;1.20;;;11.80;82.50;;;;;;5048686;28;20837;-77
2021/05/26 10:20:34;;;;;;;3.10;1.10;;;11.80;82.40;;;;;;5052781;28;20981;-75
2021/05/26 10:23:01;;;;;;;3.47;1.47;;;12.00;83.10;;;;;;5050455;28;20540;-76
2021/05/26 10:25:28;;;;;;;1.60;1.30;;;12.10;82.20;;;;;;5033682;28;20500;-77
2021/05/26 10:27:55;;;;;;;2.97;1.20;;;12.20;80.80;;;;;;5034466;28;20462;-78
2021/05/26 10:30:27;;;;;;;3.10;0.93;;;12.20;82.10;;;;;;5041403;28;20435;-78
2021/05/26 10:32:55;;;;;;;2.50;1.10;;;12.30;81.40;;;;;;5053389;28;20463;-76
2021/05/26 10:35:43;;;;;;;3.20;1.40;;;12.30;80.20;;;;;;5046566;28;20432;-76
2021/05/26 10:38:09;;;;;;;2.77;1.17;;;12.10;81.20;;;;;;5029984;28;20419;-76
2021/05/26 10:40:37;;;;;;;1.13;0.90;;;12.40;80.90;;;;;;5039873;28;20450;-75
2021/05/26 10:43:15;;;;;;;1.77;1.30;;;12.40;80.90;;;;;;5042368;28;20273;-76
2021/05/26 10:45:42;;;;;;;2.60;0.77;;;12.40;80.00;;;;;;5044843;28;20470;-76
2021/05/26 10:48:08;;;;;;;2.57;1.30;;;12.30;80.30;;;;;;5041493;28;20420;-75
2021/05/26 10:50:53;;;;;;;3.93;1.03;;;12.30;81.50;;;;;;5038163;28;20416;-79
2021/05/26 10:53:19;;;;;;;5.00;1.13;;;12.30;80.90;;;;;;5053968;28;20463;-76
2021/05/26 10:55:50;;;;;;;1.27;0.70;;;12.20;79.90;;;;;;5037213;28;20443;-77
2021/05/26 10:58:23;;;;;;;1.40;1.00;;;12.20;79.90;;;;;;5026747;28;20432;-77
2021/05/26 11:01:01;;;;;;;2.07;1.30;;;12.30;79.70;;;;;;5027411;28;21074;-78
2021/05/26 11:05:53;;;;;;;3.13;0.93;;;12.40;78.70;;;;;;5041856;28;20431;-77
2021/05/26 11:08:29;;;;;;;4.53;1.13;;;12.40;79.00;;;;;;5036617;28;20300;-76
2021/05/26 11:10:55;;;;;;;3.67;1.53;;;12.50;79.20;;;;;;5026226;28;20443;-78
2021/05/26 11:13:21;;;;;;;4.07;0.80;;;12.50;80.20;;;;;;5034025;28;21046;-77
2021/05/26 11:15:48;;;;;;;2.83;0.90;;;12.50;79.50;;;;;;5042139;28;20447;-75
2021/05/26 11:18:29;;;;;;;1.67;1.13;;;12.40;81.10;;;;;;5035137;28;20556;-77
2021/05/26 11:20:55;;;;;;;2.40;1.17;;;12.40;81.40;;;;;;5044858;28;20518;-76
2021/05/26 11:23:21;;;;;;;2.40;1.03;;;12.40;81.40;;;;;;5038799;28;20476;-76
2021/05/26 11:25:57;;;;;;;1.30;0.90;;;12.50;79.50;;;;;;5039119;28;20922;-76
2021/05/26 11:28:30;;;;;;;2.67;0.93;;;12.50;78.90;;;;;;5038254;28;20434;-75
2021/05/26 11:31:00;;;;;;;2.53;1.13;;;12.50;78.00;;;;;;5044641;28;20497;-76
2021/05/26 11:33:25;;;;;;;5.33;1.10;;;12.60;79.50;;;;;;5031635;28;20822;-75
2021/05/26 11:35:51;;;;;;;3.53;1.33;;;12.80;79.20;;;;;;5031133;28;20440;-76
2021/05/26 11:38:22;;;;;;;2.20;0.90;;;12.80;78.30;;;;;;5030106;28;20312;-78
2021/05/26 11:40:47;;;;;;;2.47;1.20;;;12.70;78.60;;;;;;5049958;28;20427;-77
2021/05/26 11:43:14;;;;;;;4.30;1.20;;;12.80;78.60;;;;;;5035541;28;20442;-77
2021/05/26 11:45:40;;;;;;;7.00;1.20;;;12.90;77.30;;;;;;5050819;28;20240;-75
2021/05/26 11:48:06;;;;;;;3.10;1.33;;;13.00;77.40;;;;;;5043140;28;20563;-78
2021/05/26 11:50:32;;;;;;;1.50;1.10;;;13.00;77.10;;;;;;5034773;28;20918;-76
2021/05/26 11:53:01;;;;;;;3.50;1.10;;;12.90;76.40;;;;;;5048453;28;20554;-76
2021/05/26 11:55:27;;;;;;;1.23;0.83;;;13.00;76.20;;;;;;5039509;28;20458;-78
2021/05/26 11:57:54;;;;;;;2.40;1.27;;;13.10;76.70;;;;;;5043497;28;20469;-77
2021/05/26 12:00:23;;;;;;;2.73;1.20;;;13.20;76.80;;;;;;5031980;28;20422;-77
2021/05/26 12:02:54;;;;;;;1.40;1.03;;;13.20;75.50;;;;;;5032916;28;20428;-76
2021/05/26 12:05:53;;;;;;;4.27;1.03;;;13.20;75.90;;;;;;5043340;28;20428;-80
2021/05/26 12:08:53;;;;;;;4.40;1.10;;;13.30;74.90;;;;;;5032821;28;20423;-78
2021/05/26 12:11:23;;;;;;;4.07;0.80;;;13.50;74.00;;;;;;5046124;28;20499;-75
2021/05/26 12:13:50;;;;;;;2.80;1.00;;;13.30;74.50;;;;;;5047989;28;20564;-77
2021/05/26 12:16:18;;;;;;;4.00;1.10;;;13.30;74.20;;;;;;5040340;28;20452;-75
2021/05/26 12:18:52;;;;;;;1.80;1.20;;;13.40;75.80;;;;;;5031168;28;20471;-77
2021/05/26 12:21:20;;;;;;;2.30;1.50;;;13.70;74.90;;;;;;5037697;28;20459;-77
2021/05/26 12:23:49;;;;;;;1.33;1.00;;;13.70;74.50;;;;;;5034072;28;20463;-78
2021/05/26 12:26:31;;;;;;;2.13;1.03;;;13.80;74.60;;;;;;5030480;28;20448;-76
2021/05/26 12:28:58;;;;;;;1.93;1.27;;;13.70;74.20;;;;;;5043818;28;20437;-76
2021/05/26 12:31:28;;;;;;;2.40;1.30;;;13.90;74.30;;;;;;5030968;28;20854;-75
2021/05/26 12:33:55;;;;;;;2.00;1.00;;;14.10;73.50;;;;;;5048608;28;20461;-76
2021/05/26 12:36:24;;;;;;;3.30;1.33;;;14.30;72.60;;;;;;5039031;28;20499;-76
2021/05/26 12:39:14;;;;;;;5.00;1.30;;;14.40;71.80;;;;;;5035536;28;20420;-75
2021/05/26 12:41:44;;;;;;;1.90;1.00;;;14.60;71.70;;;;;;5035797;28;20419;-76
2021/05/26 12:44:10;;;;;;;2.60;1.60;;;14.40;71.30;;;;;;5021138;28;20954;-76
2021/05/26 12:46:40;;;;;;;4.10;1.40;;;14.50;72.00;;;;;;5025278;28;20460;-75
2021/05/26 12:49:36;;;;;;;1.90;0.97;;;14.90;71.10;;;;;;5031431;28;20640;-78
2021/05/26 12:52:23;;;;;;;1.10;1.00;;;14.90;69.40;;;;;;5038036;28;20838;-77
2021/05/26 12:54:49;;;;;;;2.50;0.97;;;14.60;69.50;;;;;;5051383;28;20437;-77